.
WxDataArchive / Data Records for 2015-06-06
2015-06-05 June 2015 2015-06-07

Data Records for Saturday, 06 June 2015

Time	Temp	Chill	HIndex	Humid	Dewpt	 Wind 	HiWind	WindDir	Rain 	Barom
-----	----	-----	------	-----	-----	------	------	-------	-----	-----
00:00	65.2	65.2	65.2	78	58.2	2	7	45	0.00	30.026 
00:05	65.2	65.2	65.2	78	58.2	1	5	112	0.00	30.026 
00:10	65.0	65.0	65.0	77	57.6	1	5	135	0.00	30.026 
00:15	65.0	65.0	65.0	77	57.6	0	3	180	0.00	30.028 
00:20	64.8	64.8	64.8	77	57.4	1	5	112	0.00	30.028 
00:25	65.0	65.0	65.0	78	58.0	1	4	112	0.00	30.028 
00:30	65.0	65.0	65.0	78	58.0	1	3	112	0.00	30.031 
00:35	64.8	64.8	64.8	78	57.8	1	5	68	0.00	30.031 
00:40	64.8	64.8	64.8	77	57.4	1	3	112	0.00	30.031 
00:45	64.8	64.8	64.8	77	57.4	1	5	112	0.00	30.028 
00:50	64.7	64.7	64.7	77	57.3	1	4	90	0.00	30.028 
00:55	64.7	64.7	64.7	77	57.3	1	3	90	0.00	30.028 
01:00	64.7	64.7	64.7	77	57.3	1	4	90	0.00	30.030 
01:05	64.7	64.7	64.7	77	57.3	1	3	22	0.00	30.030 
01:10	64.5	64.5	64.5	76	56.8	1	4	90	0.00	30.030 
01:15	64.5	64.5	64.5	77	57.1	1	5	112	0.00	30.030 
01:20	64.5	64.5	64.5	76	56.8	1	7	135	0.00	30.030 
01:25	64.5	64.5	64.5	76	56.8	2	6	112	0.00	30.030 
01:30	64.3	64.3	64.3	76	56.6	1	3	90	0.00	30.035 
01:35	64.3	64.3	64.3	76	56.6	1	4	90	0.00	30.035 
01:40	64.3	64.3	64.3	76	56.6	1	5	90	0.00	30.035 
01:45	64.2	64.2	64.2	76	56.5	1	5	90	0.00	30.031 
01:50	64.2	64.2	64.2	76	56.5	1	4	112	0.00	30.031 
01:55	64.2	64.2	64.2	76	56.5	1	6	112	0.00	30.031 
02:00	64.2	64.2	64.2	76	56.5	2	7	90	0.00	30.033 
02:05	64.0	64.0	64.0	76	56.3	1	5	90	0.00	30.033 
02:10	64.0	64.0	64.0	76	56.3	1	4	90	0.00	30.033 
02:15	63.9	63.9	63.9	76	56.2	0	3	90	0.00	30.041 
02:20	63.9	63.9	63.9	77	56.5	1	4	90	0.00	30.041 
02:25	63.9	63.9	63.9	77	56.5	0	2	90	0.00	30.041 
02:30	63.7	63.7	63.7	77	56.3	1	4	90	0.00	30.043 
02:35	63.7	63.7	63.7	77	56.3	1	5	112	0.00	30.043 
02:40	63.5	63.5	63.5	77	56.2	1	3	112	0.00	30.043 
02:45	63.5	63.5	63.5	77	56.2	0	3	112	0.00	30.046 
02:50	63.5	63.5	63.5	77	56.2	0	1	112	0.00	30.046 
02:55	63.5	63.5	63.5	77	56.2	0	4	112	0.00	30.046 
03:00	63.5	63.5	63.5	77	56.2	0	2	112	0.00	30.047 
03:05	63.5	63.5	63.5	77	56.2	0	4	112	0.00	30.047 
03:10	63.4	63.4	63.4	77	56.1	0	1	112	0.00	30.047 
03:15	63.4	63.4	63.4	77	56.1	0	2	112	0.00	30.047 
03:20	63.4	63.4	63.4	77	56.1	0	2	112	0.00	30.047 
03:25	63.4	63.4	63.4	77	56.1	0	2	112	0.00	30.047 
03:30	63.2	63.2	63.2	78	56.2	0	0	---	0.00	30.047 
03:35	63.1	63.1	63.1	78	56.1	0	2	112	0.00	30.047 
03:40	63.1	63.1	63.1	78	56.1	0	1	112	0.00	30.047 
03:45	63.1	63.1	63.1	79	56.5	0	1	112	0.00	30.043 
03:50	62.9	62.9	62.9	78	55.9	0	3	112	0.00	30.043 
03:55	62.7	62.7	62.7	79	56.1	0	0	---	0.00	30.043 
04:00	62.6	62.6	62.6	79	56.0	0	2	112	0.00	30.046 
04:05	62.6	62.6	62.6	79	56.0	0	1	112	0.00	30.046 
04:10	62.6	62.6	62.6	79	56.0	0	1	112	0.00	30.046 
04:15	62.6	62.6	62.6	80	56.3	0	0	---	0.00	30.047 
04:20	62.6	62.6	62.6	80	56.3	0	1	112	0.00	30.047 
04:25	62.6	62.6	62.6	80	56.3	0	3	112	0.00	30.047 
04:30	62.6	62.6	62.6	79	56.0	0	2	112	0.00	30.048 
04:35	62.6	62.6	62.6	79	56.0	0	2	112	0.00	30.048 
04:40	62.6	62.6	62.6	79	56.0	0	3	112	0.00	30.048 
04:45	62.6	62.6	62.6	79	56.0	0	2	112	0.00	30.059 
04:50	62.6	62.6	62.6	78	55.6	1	3	112	0.00	30.059 
04:55	62.4	62.4	62.4	78	55.4	0	2	112	0.00	30.059 
05:00	62.4	62.4	62.4	78	55.4	0	2	112	0.00	30.059 
05:05	62.4	62.4	62.4	78	55.4	1	4	112	0.00	30.059 
05:10	62.3	62.3	62.3	78	55.3	0	2	112	0.00	30.059 
05:15	62.3	62.3	62.3	78	55.3	0	2	112	0.00	30.057 
05:20	62.1	62.1	62.1	79	55.5	0	1	112	0.00	30.057 
05:25	61.8	61.8	61.8	79	55.2	0	4	112	0.00	30.057 
05:30	61.5	61.5	61.5	79	54.9	0	2	158	0.00	30.062 
05:35	61.2	61.2	61.2	79	54.6	0	3	135	0.00	30.062 
05:40	61.0	61.0	61.0	80	54.8	0	2	135	0.00	30.062 
05:45	60.7	60.7	60.7	80	54.5	1	5	135	0.00	30.067 
05:50	60.5	60.5	60.5	80	54.3	1	5	135	0.00	30.067 
05:55	60.5	60.5	60.5	81	54.6	1	4	135	0.00	30.067 
06:00	60.4	60.4	60.4	81	54.5	0	3	68	0.00	30.073 
06:05	60.2	60.2	60.2	81	54.3	1	5	135	0.00	30.073 
06:10	60.1	60.1	60.1	81	54.2	0	3	158	0.00	30.073 
06:15	59.9	59.9	59.9	81	54.1	0	3	135	0.00	30.081 
06:20	59.8	59.8	59.8	81	54.0	0	3	135	0.00	30.081 
06:25	59.8	59.8	59.8	80	53.6	1	5	135	0.00	30.081 
06:30	59.6	59.6	59.6	81	53.8	0	3	90	0.00	30.077 
06:35	59.6	59.6	59.6	80	53.4	0	5	112	0.00	30.077 
06:40	59.5	59.5	59.5	80	53.3	1	6	90	0.00	30.077 
06:45	59.5	59.5	59.5	80	53.3	1	5	90	0.00	30.073 
06:50	59.5	59.5	59.5	80	53.3	0	4	90	0.00	30.073 
06:55	59.5	59.5	59.5	81	53.7	1	5	90	0.00	30.073 
07:00	59.5	59.5	59.5	81	53.7	0	3	90	0.00	30.072 
07:05	59.5	59.5	59.5	80	53.3	1	3	90	0.00	30.072 
07:10	59.5	59.5	59.5	81	53.7	1	4	90	0.00	30.072 
07:15	59.5	59.5	59.5	81	53.7	1	3	112	0.00	30.081 
07:20	59.5	59.5	59.5	80	53.3	1	3	112	0.00	30.081 
07:25	59.5	59.5	59.5	80	53.3	1	4	90	0.00	30.081 
07:30	59.5	59.5	59.5	80	53.3	1	4	112	0.00	30.087 
07:35	59.5	59.5	59.5	80	53.3	1	4	90	0.00	30.087 
07:40	59.5	59.5	59.5	80	53.3	1	4	90	0.00	30.087 
07:45	59.5	59.5	59.5	79	53.0	0	3	90	0.00	30.089 
07:50	59.5	59.5	59.5	79	53.0	0	3	112	0.00	30.089 
07:55	59.5	59.5	59.5	79	53.0	1	5	180	0.00	30.089 
08:00	59.5	59.5	59.5	79	53.0	1	4	112	0.00	30.100 
08:05	59.5	59.5	59.5	79	53.0	1	5	112	0.00	30.100 
08:10	59.5	59.5	59.5	79	53.0	1	3	90	0.00	30.100 
08:15	59.5	59.5	59.5	79	53.0	1	4	90	0.00	30.106 
08:20	59.5	59.5	59.5	79	53.0	1	4	135	0.00	30.106 
08:25	59.5	59.5	59.5	78	52.6	1	3	135	0.00	30.106 
08:30	59.5	59.5	59.5	78	52.6	1	4	112	0.00	30.108 
08:35	59.5	59.5	59.5	78	52.6	2	7	112	0.00	30.108 
08:40	59.5	59.5	59.5	78	52.6	1	4	112	0.00	30.108 
08:45	59.5	59.5	59.5	78	52.6	1	6	112	0.00	30.105 
08:50	59.6	59.6	59.6	78	52.7	1	3	112	0.00	30.105 
08:55	59.6	59.6	59.6	78	52.7	1	4	112	0.00	30.105 
09:00	59.8	59.8	59.8	77	52.6	1	7	68	0.00	30.105 
09:05	59.8	59.8	59.8	77	52.6	1	5	90	0.00	30.105 
09:10	59.9	59.9	59.9	77	52.7	1	4	90	0.00	30.105 
09:15	60.1	60.1	60.1	77	52.9	1	4	90	0.00	30.106 
09:20	60.5	60.5	60.5	77	53.2	0	1	90	0.00	30.106 
09:25	61.2	61.2	61.2	76	53.6	1	3	90	0.00	30.106 
09:30	61.6	61.6	61.6	75	53.6	1	5	90	0.00	30.104 
09:35	62.4	62.4	62.4	74	54.0	2	6	90	0.00	30.104 
09:40	62.9	62.9	62.9	71	53.3	3	6	90	0.00	30.104 
09:45	63.1	63.1	63.1	72	53.9	2	4	112	0.00	30.103 
09:50	63.1	63.1	63.1	73	54.3	1	5	68	0.00	30.103 
09:55	63.1	63.1	63.1	73	54.3	2	6	90	0.00	30.103 
10:00	63.2	63.2	63.2	73	54.4	2	6	90	0.00	30.105 
10:05	63.1	63.1	63.1	72	53.9	3	7	90	0.00	30.105 
10:10	63.1	63.1	63.1	73	54.3	1	3	45	0.00	30.105 
10:15	63.2	63.2	63.2	73	54.4	1	4	90	0.00	30.107 
10:20	63.4	63.4	63.4	73	54.6	2	5	90	0.00	30.107 
10:25	63.2	63.2	63.2	72	54.0	3	5	90	0.00	30.107 
10:30	63.4	63.4	63.4	72	54.2	2	5	90	0.00	30.106 
10:35	63.5	63.5	63.5	73	54.7	2	5	90	0.00	30.106 
10:40	63.9	63.9	63.9	73	55.1	2	6	90	0.00	30.106 
10:45	63.9	63.9	63.9	72	54.7	2	4	90	0.00	30.105 
10:50	64.2	64.2	64.2	73	55.4	0	2	90	0.00	30.105 
10:55	64.5	64.5	64.5	72	55.3	1	5	90	0.00	30.105 
11:00	64.8	64.8	64.8	72	55.6	1	4	112	0.00	30.107 
11:05	65.0	65.0	65.0	71	55.4	1	4	68	0.00	30.107 
11:10	65.5	65.5	65.5	72	56.2	1	3	68	0.00	30.107 
11:15	66.1	66.1	66.1	71	56.4	2	4	135	0.00	30.106 
11:20	66.4	66.4	66.4	69	55.9	1	4	135	0.00	30.106 
11:25	66.6	66.6	66.6	69	56.1	2	6	90	0.00	30.106 
11:30	66.6	66.6	66.6	69	56.1	1	7	90	0.00	30.105 
11:35	66.9	66.9	66.9	69	56.4	2	5	112	0.00	30.105 
11:40	67.3	67.3	67.3	69	56.8	1	4	112	0.00	30.105 
11:45	67.6	67.6	67.6	69	57.1	2	6	90	0.00	30.108 
11:50	67.6	67.6	67.6	68	56.7	2	6	90	0.00	30.108 
11:55	67.8	67.8	67.8	70	57.6	1	5	90	0.00	30.108 
12:00	67.9	67.9	67.9	69	57.3	2	6	90	0.00	30.103 
12:05	68.1	68.1	68.1	68	57.1	2	5	90	0.00	30.103 
12:10	68.1	68.1	68.1	68	57.1	1	5	68	0.00	30.103 
12:15	68.1	68.1	68.1	67	56.7	2	5	90	0.00	30.103 
12:20	68.3	68.3	68.3	68	57.3	1	5	90	0.00	30.103 
12:25	68.6	68.6	68.6	67	57.2	2	5	112	0.00	30.103 
12:30	68.6	68.6	68.6	66	56.8	2	7	112	0.00	30.100 
12:35	68.6	68.6	68.6	67	57.2	2	5	112	0.00	30.100 
12:40	68.6	68.6	68.6	67	57.2	2	6	112	0.00	30.100 
12:45	68.6	68.6	68.6	66	56.8	2	6	112	0.00	30.093 
12:50	68.6	68.6	68.6	67	57.2	1	4	112	0.00	30.093 
12:55	68.8	68.8	68.8	67	57.4	2	5	90	0.00	30.093 
13:00	68.9	68.9	68.9	67	57.5	1	5	90	0.00	30.087 
13:05	69.3	69.3	69.3	68	58.3	0	3	90	0.00	30.087 
13:10	69.4	69.4	69.4	65	57.1	2	7	90	0.00	30.087 
13:15	69.9	69.9	69.9	65	57.6	2	6	90	0.00	30.086 
13:20	70.3	70.3	70.3	65	58.0	2	5	90	0.00	30.086 
13:25	70.3	70.3	70.3	64	57.5	2	6	90	0.00	30.086 
13:30	70.6	70.6	70.6	64	57.8	2	4	112	0.00	30.080 
13:35	70.9	70.9	70.9	63	57.7	2	4	90	0.00	30.080 
13:40	71.1	71.1	71.1	62	57.4	1	5	90	0.00	30.080 
13:45	71.1	71.1	71.1	63	57.9	1	5	112	0.00	30.074 
13:50	71.1	71.1	71.1	62	57.4	3	6	90	0.00	30.074 
13:55	71.3	71.3	71.3	62	57.6	1	5	90	0.00	30.074 
14:00	71.8	71.8	71.8	62	58.1	2	5	90	0.00	30.068 
14:05	72.1	72.1	72.1	61	57.9	2	6	90	0.00	30.068 
14:10	72.5	72.5	72.5	61	58.3	2	5	90	0.00	30.068 
14:15	72.7	72.7	72.7	60	58.0	2	5	112	0.00	30.067 
14:20	73.0	73.0	73.0	59	57.8	2	6	112	0.00	30.067 
14:25	73.5	73.5	73.5	59	58.3	2	6	90	0.00	30.067 
14:30	73.5	73.5	73.5	57	57.3	1	4	90	0.00	30.060 
14:35	73.3	73.3	73.3	56	56.6	3	10	90	0.00	30.060 
14:40	73.0	73.0	73.0	60	58.3	3	7	90	0.00	30.060 
14:45	73.3	73.3	73.3	58	57.6	2	5	112	0.00	30.063 
14:50	73.3	73.3	73.3	57	57.1	2	8	90	0.00	30.063 
14:55	73.3	73.3	73.3	58	57.6	2	6	90	0.00	30.063 
15:00	73.3	73.3	73.3	56	56.6	2	6	112	0.00	30.063 
15:05	73.9	73.9	73.9	58	58.2	1	3	90	0.00	30.063 
15:10	74.0	74.0	74.0	55	56.8	3	7	90	0.00	30.063 
15:15	74.4	74.4	74.4	55	57.2	2	4	68	0.00	30.063 
15:20	74.6	74.6	74.6	53	56.3	1	4	112	0.00	30.063 
15:25	74.6	74.6	74.6	54	56.8	2	5	90	0.00	30.063 
15:30	74.0	74.0	74.0	56	57.3	2	4	112	0.00	30.060 
15:35	73.7	73.7	73.7	57	57.5	2	5	90	0.00	30.060 
15:40	73.5	73.5	73.5	55	56.3	2	6	90	0.00	30.060 
15:45	74.0	74.0	74.0	57	57.8	2	6	90	0.00	30.053 
15:50	74.6	74.6	74.6	53	56.3	2	6	90	0.00	30.053 
15:55	74.6	74.6	74.6	55	57.3	2	6	90	0.00	30.053 
16:00	74.7	74.7	74.7	53	56.4	2	6	90	0.00	30.053 
16:05	74.9	74.9	74.9	51	55.5	3	6	90	0.00	30.053 
16:10	75.1	75.1	77.6	52	56.3	2	6	90	0.00	30.053 
16:15	75.3	75.3	77.7	52	56.4	2	6	90	0.00	30.052 
16:20	75.4	75.4	77.8	52	56.5	2	6	68	0.00	30.052 
16:25	75.3	75.3	77.7	51	55.9	2	7	90	0.00	30.052 
16:30	75.3	75.3	77.7	50	55.4	3	7	90	0.00	30.050 
16:35	75.1	75.1	77.7	50	55.2	2	4	90	0.00	30.050 
16:40	74.9	74.9	74.9	51	55.5	2	9	90	0.00	30.050 
16:45	75.3	75.3	77.7	51	55.9	2	6	90	0.00	30.048 
16:50	75.3	75.3	77.7	51	55.9	2	4	90	0.00	30.048 
16:55	75.1	75.1	77.7	51	55.7	1	4	90	0.00	30.048 
17:00	75.3	75.3	77.7	52	56.4	2	4	90	0.00	30.042 
17:05	75.4	75.4	77.8	49	54.9	1	4	68	0.00	30.042 
17:10	75.4	75.4	77.8	50	55.4	2	7	90	0.00	30.042 
17:15	75.4	75.4	77.8	50	55.4	2	5	68	0.00	30.045 
17:20	75.3	75.3	77.7	49	54.8	2	6	90	0.00	30.045 
17:25	75.1	75.1	77.7	49	54.6	1	3	68	0.00	30.045 
17:30	75.3	75.3	77.7	50	55.4	1	6	68	0.00	30.040 
17:35	75.1	75.1	77.7	48	54.1	2	5	90	0.00	30.040 
17:40	74.9	74.9	74.9	51	55.5	2	7	112	0.00	30.040 
17:45	74.7	74.7	74.7	51	55.4	3	6	90	0.00	30.039 
17:50	74.4	74.4	74.4	51	55.1	2	6	90	0.00	30.039 
17:55	74.2	74.2	74.2	50	54.3	2	4	90	0.00	30.039 
18:00	74.0	74.0	74.0	50	54.2	3	7	90	0.00	30.039 
18:05	73.9	73.9	73.9	50	54.1	2	6	112	0.00	30.039 
18:10	74.0	74.0	74.0	51	54.7	1	5	90	0.00	30.039 
18:15	74.0	74.0	74.0	49	53.6	1	5	90	0.00	30.038 
18:20	74.0	74.0	74.0	49	53.6	2	5	112	0.00	30.038 
18:25	73.9	73.9	73.9	50	54.1	1	4	90	0.00	30.038 
18:30	73.9	73.9	73.9	50	54.1	2	6	112	0.00	30.025 
18:35	73.7	73.7	73.7	50	53.9	2	4	90	0.00	30.025 
18:40	73.7	73.7	73.7	51	54.4	1	4	90	0.00	30.025 
18:45	73.5	73.5	73.5	51	54.2	2	7	90	0.00	30.024 
18:50	73.3	73.3	73.3	51	54.1	2	6	90	0.00	30.024 
18:55	73.0	73.0	73.0	50	53.2	3	6	90	0.00	30.024 
19:00	72.8	72.8	72.8	50	53.1	3	6	90	0.00	30.021 
19:05	72.8	72.8	72.8	52	54.1	1	3	90	0.00	30.021 
19:10	72.7	72.7	72.7	51	53.5	2	5	68	0.00	30.021 
19:15	72.5	72.5	72.5	52	53.9	1	4	68	0.00	30.025 
19:20	72.3	72.3	72.3	51	53.1	2	6	90	0.00	30.025 
19:25	72.1	72.1	72.1	53	54.0	2	6	68	0.00	30.025 
19:30	71.8	71.8	71.8	53	53.7	1	3	68	0.00	30.022 
19:35	71.6	71.6	71.6	53	53.5	2	4	90	0.00	30.022 
19:40	71.6	71.6	71.6	53	53.5	1	3	68	0.00	30.022 
19:45	71.5	71.5	71.5	54	54.0	2	4	68	0.00	30.022 
19:50	71.3	71.3	71.3	54	53.8	2	5	68	0.00	30.022 
19:55	70.9	70.9	70.9	54	53.4	1	4	45	0.00	30.022 
20:00	70.8	70.8	70.8	55	53.8	2	4	90	0.00	30.022 
20:05	70.6	70.6	70.6	56	54.1	1	2	90	0.00	30.022 
20:10	70.4	70.4	70.4	55	53.4	2	5	90	0.00	30.022 
20:15	70.1	70.1	70.1	56	53.7	1	4	68	0.00	30.023 
20:20	69.9	69.9	69.9	56	53.5	2	3	68	0.00	30.023 
20:25	69.8	69.8	69.8	55	52.9	2	4	68	0.00	30.023 
20:30	69.4	69.4	69.4	55	52.5	2	5	68	0.00	30.020 
20:35	69.3	69.3	69.3	55	52.4	1	3	90	0.00	30.020 
20:40	68.9	68.9	68.9	55	52.1	2	4	90	0.00	30.020 
20:45	68.8	68.8	68.8	57	52.9	1	3	90	0.00	30.014 
20:50	68.4	68.4	68.4	57	52.6	1	6	90	0.00	30.014 
20:55	68.3	68.3	68.3	58	52.9	1	3	90	0.00	30.014 
21:00	67.9	67.9	67.9	58	52.6	1	5	90	0.00	30.012 
21:05	67.6	67.6	67.6	59	52.8	1	6	68	0.00	30.012 
21:10	67.4	67.4	67.4	59	52.6	1	2	68	0.00	30.012 
21:15	67.1	67.1	67.1	59	52.3	1	3	68	0.00	30.009 
21:20	66.9	66.9	66.9	60	52.6	0	2	68	0.00	30.009 
21:25	66.6	66.6	66.6	61	52.7	0	1	68	0.00	30.009 
21:30	66.4	66.4	66.4	61	52.5	1	2	68	0.00	30.015 
21:35	66.1	66.1	66.1	61	52.3	1	4	68	0.00	30.015 
21:40	66.0	66.0	66.0	61	52.2	1	3	68	0.00	30.015 
21:45	65.8	65.8	65.8	62	52.4	0	3	68	0.00	30.016 
21:50	65.6	65.6	65.6	62	52.2	0	2	68	0.00	30.016 
21:55	65.3	65.3	65.3	63	52.4	0	2	68	0.00	30.016 
22:00	65.2	65.2	65.2	64	52.7	0	1	68	0.00	30.016 
22:05	64.8	64.8	64.8	64	52.3	0	2	68	0.00	30.016 
22:10	64.7	64.7	64.7	65	52.7	1	3	68	0.00	30.016 
22:15	64.5	64.5	64.5	65	52.5	0	4	68	0.00	30.014 
22:20	64.2	64.2	64.2	65	52.2	0	1	68	0.00	30.014 
22:25	64.0	64.0	64.0	66	52.4	0	2	68	0.00	30.014 
22:30	63.9	63.9	63.9	67	52.7	1	3	68	0.00	30.017 
22:35	63.7	63.7	63.7	67	52.5	0	2	68	0.00	30.017 
22:40	63.5	63.5	63.5	68	52.7	0	2	68	0.00	30.017 
22:45	63.4	63.4	63.4	68	52.6	1	3	68	0.00	30.016 
22:50	63.2	63.2	63.2	69	52.9	1	3	68	0.00	30.016 
22:55	63.1	63.1	63.1	70	53.2	1	3	68	0.00	30.016 
23:00	63.1	63.1	63.1	70	53.2	1	3	68	0.00	30.016 
23:05	62.9	62.9	62.9	71	53.3	1	3	68	0.00	30.016 
23:10	62.6	62.6	62.6	72	53.4	1	3	68	0.00	30.016 
23:15	62.4	62.4	62.4	72	53.2	1	3	68	0.00	30.013 
23:20	62.3	62.3	62.3	73	53.5	0	2	68	0.00	30.013 
23:25	62.1	62.1	62.1	73	53.3	0	3	68	0.00	30.013 
23:30	61.8	61.8	61.8	74	53.4	0	2	68	0.00	30.016 
23:35	61.6	61.6	61.6	74	53.2	0	1	68	0.00	30.016 
23:40	61.5	61.5	61.5	74	53.1	1	4	68	0.00	30.016 
23:45	61.3	61.3	61.3	74	52.9	1	3	68	0.00	30.010 
23:50	61.3	61.3	61.3	74	52.9	1	3	68	0.00	30.010 
23:55	61.2	61.2	61.2	74	52.8	1	4	68	0.00	30.010 

CoCoRaHS
IN-AL-39
A2 Web Hosting
Creative Commons License
GoDaddy
search engine by freefind advanced

loaded 2018-11-20 06:22:30 • last modified 2010-11-18 10:43:29
Privacy PolicyDisclaimer
• wx.awcolley.com is powered by PmWiki v.2002016 •
• all content (unless otherwise noted) © 2018 A W Colley